Home > Products > Valid Products > TAF

000
FTUS45 KPIH 251100
TAFPIH
TAF
KPIH 251120Z 2512/2612 VRB05KT P6SM SKC
     FM251500 18012KT P6SM SCT200
     FM252000 18020G30KT P6SM SCT200
     FM260100 21015KT P6SM OVC120=



000
FTUS45 KPIH 251100
TAFBYI
TAF
KBYI 251120Z 2512/2612 VRB05KT P6SM SKC
     FM251700 16011KT P6SM SCT200
     FM252000 22012G22KT P6SM BKN200
     FM260400 24015KT P6SM OVC120=



000
FTUS45 KPIH 251100
TAFIDA
TAF
KIDA 251120Z 2512/2612 VRB05KT P6SM SKC
     FM251500 19011KT P6SM SCT150
     FM252000 21018G28KT P6SM SCT150
     FM260200 21015KT P6SM OVC150=



000
FTUS45 KPIH 251100
TAFSUN
TAF
KSUN 251120Z 2512/2612 32011KT P6SM SKC
     FM251900 16010KT P6SM SCT100 BKN180
     FM260400 29008KT P6SM VCSH SCT050 BKN080 OVC100
     FM260800 30008KT P6SM -SHRA SCT025 BKN050
      AMD LTD TO CLD VIS AND WIND TIL 251300=



000
FTUS45 KPIH 251100
TAFBYI
TAF
KBYI 251120Z 2512/2612 VRB05KT P6SM SKC
     FM251700 16011KT P6SM SCT200
     FM252000 22012G22KT P6SM BKN200
     FM260400 24015KT P6SM OVC120=



000
FTUS45 KPIH 251100
TAFPIH
TAF
KPIH 251120Z 2512/2612 VRB05KT P6SM SKC
     FM251500 18012KT P6SM SCT200
     FM252000 18020G30KT P6SM SCT200
     FM260100 21015KT P6SM OVC120=



000
FTUS45 KPIH 251100
TAFIDA
TAF
KIDA 251120Z 2512/2612 VRB05KT P6SM SKC
     FM251500 19011KT P6SM SCT150
     FM252000 21018G28KT P6SM SCT150
     FM260200 21015KT P6SM OVC150=



000
FTUS45 KPIH 251100
TAFSUN
TAF
KSUN 251120Z 2512/2612 32011KT P6SM SKC
     FM251900 16010KT P6SM SCT100 BKN180
     FM260400 29008KT P6SM VCSH SCT050 BKN080 OVC100
     FM260800 30008KT P6SM -SHRA SCT025 BKN050
      AMD LTD TO CLD VIS AND WIND TIL 251300=



000
FTUS45 KPIH 250600 AAA
TAFPIH
TAF AMD
KPIH 250622Z 2506/2606 VRB05KT P6SM SKC
     FM251500 18012KT P6SM SCT200
     FM252000 18020G30KT P6SM SCT120 BKN200
     FM260200 21015KT P6SM OVC120=



000
FTUS45 KPIH 250500
TAFIDA
TAF
KIDA 250520Z 2506/2606 VRB06KT P6SM SKC
     FM251200 19011KT P6SM FEW110 SCT200
     FM252000 21018G28KT P6SM SCT110 BKN200
     FM260200 21015KT P6SM OVC110=



000
FTUS45 KPIH 250500
TAFBYI
TAF
KBYI 250520Z 2506/2606 17010KT P6SM SKC
     FM251700 16011KT P6SM FEW130 SCT200
     FM252000 22012G22KT P6SM SCT130 BKN200
     FM260200 24011KT P6SM OVC130=



000
FTUS45 KPIH 250500
TAFPIH
TAF
KPIH 250520Z 2506/2606 17015KT P6SM SKC
     FM252000 18020G30KT P6SM SCT120 BKN200
     FM260200 21015KT P6SM OVC120=



000
FTUS45 KPIH 250500
TAFSUN
TAF
KSUN 250520Z 2506/2606 31008KT P6SM FEW200
     FM251200 33013KT P6SM SCT200
     FM251900 16010KT P6SM SCT100 BKN180
     FM260400 29008KT P6SM VCSH SCT050 BKN080 OVC100
      AMD LTD TO CLD VIS AND WIND TIL 251300=



000
FTUS45 KPIH 242300
TAFBYI
TAF
KBYI 242322Z 2500/2524 06006KT P6SM SKC
     FM251700 16011KT P6SM FEW100 SCT200
     FM252000 22012G22KT P6SM SCT100 BKN200=



000
FTUS45 KPIH 242300
TAFPIH
TAF
KPIH 242322Z 2500/2524 18010G20KT P6SM SKC
     FM250100 17015KT P6SM SKC
     FM251700 18012G22KT P6SM SCT100 BKN200=



000
FTUS45 KPIH 242300
TAFSUN
TAF
KSUN 242322Z 2500/2524 15006KT P6SM FEW100
     FM250300 31008KT P6SM SKC
     FM251200 33010G18KT P6SM FEW200
     FM251700 VRB06KT P6SM FEW100 SCT180
     FM251900 18010KT P6SM SCT100 BKN180
      AMD LTD TO CLD VIS AND WIND 2505/2513=



000
FTUS45 KPIH 242300
TAFIDA
TAF
KIDA 242322Z 2500/2524 22011KT P6SM SKC
     FM250200 VRB05KT P6SM SKC
     FM251700 20011KT P6SM FEW100 SCT200
     FM252000 21015G25KT P6SM SCT100 BKN200=



000
FTUS45 KPIH 241700
TAFPIH
TAF
KPIH 241720Z 2418/2518 VRB03KT P6SM SKC
     FM242200 26010KT P6SM SKC
     FM250100 17015KT P6SM SKC=



000
FTUS45 KPIH 241700
TAFIDA
TAF
KIDA 241720Z 2418/2518 22010KT P6SM FEW035 SCT110 BKN200
     FM242100 21010KT P6SM SKC
     FM250200 VRB05KT P6SM SKC=



000
FTUS45 KPIH 241700
TAFSUN
TAF
KSUN 241720Z 2418/2518 15006KT P6SM BKN100 BKN200
     FM242000 15006KT P6SM FEW100
     FM250300 33008KT P6SM SKC
     FM251400 13010KT P6SM SKC=



000
FTUS45 KPIH 241700
TAFBYI
TAF
KBYI 241720Z 2418/2518 06006KT P6SM SKC=



000
FTUS45 KPIH 241100
TAFSUN
TAF
KSUN 241120Z 2412/2512 29006KT P6SM VCSH SCT050 OVC090
     FM241800 15006KT P6SM FEW090
     FM250300 31010KT P6SM FEW200
      AMD LTD TO CLD VIS AND WIND TIL 241300=



000
FTUS45 KPIH 241100
TAFIDA
TAF
KIDA 241120Z 2412/2512 20012KT P6SM OVC100
     FM241700 19010KT P6SM SCT120
     FM242100 20010G20KT P6SM SKC
     FM250200 VRB05KT P6SM SKC=



000
FTUS45 KPIH 241100
TAFBYI
TAF
KBYI 241120Z 2412/2512 VRB04KT P6SM OVC110
     FM241800 20011KT P6SM SKC
     FM250300 17008KT P6SM SKC=



000
FTUS45 KPIH 241100
TAFPIH
TAF
KPIH 241120Z 2412/2512 21007KT P6SM OVC100
     FM241700 18010KT P6SM FEW120
     FM242000 19012G22KT P6SM SKC
     FM250300 17010KT P6SM SKC=



000
FTUS45 KPIH 240500
TAFSUN
TAF
KSUN 240520Z 2406/2506 29006KT P6SM VCSH SCT035 OVC050
     FM241400 31009KT P6SM FEW050 BKN090
     FM241900 15006KT P6SM FEW060
     FM250300 31010KT P6SM FEW200
      AMD LTD TO CLD VIS AND WIND TIL 241300=



000
FTUS45 KPIH 240500
TAFIDA
TAF
KIDA 240520Z 2406/2506 VRB04KT P6SM SCT120 OVC180
     FM241700 19010KT P6SM SKC
     FM242100 20012G18KT P6SM SKC
     FM250200 VRB05KT P6SM SKC=



000
FTUS45 KPIH 240500
TAFPIH
TAF
KPIH 240520Z 2406/2506 VRB04KT P6SM OVC180
     FM241700 18010KT P6SM SKC
     FM242100 19010G20KT P6SM FEW080
     FM250200 VRB05KT P6SM SKC=



000
FTUS45 KPIH 240500
TAFBYI
TAF
KBYI 240520Z 2406/2506 VRB04KT P6SM OVC180
     FM241800 20011KT P6SM SKC
     FM250100 VRB05KT P6SM SKC=



000
FTUS45 KPIH 232300
TAFSUN
TAF
KSUN 232326Z 2400/2424 VRB06KT P6SM VCSH OVC060
     FM240300 29006KT P6SM VCSH SCT035 OVC050
     FM241400 31009KT P6SM FEW050 BKN090
     FM241900 15006KT P6SM FEW060
      AMD LTD TO CLD VIS AND WIND 2405/2413=



000
FTUS45 KPIH 232300
TAFPIH
TAF
KPIH 232326Z 2400/2424 23006KT P6SM SCT120 OVC160
     FM240500 VRB04KT P6SM OVC180
     FM241800 18010KT P6SM SKC=



000
FTUS45 KPIH 232300
TAFIDA
TAF
KIDA 232326Z 2400/2424 21011KT P6SM BKN110 OVC160
     FM240600 VRB04KT P6SM SCT120 OVC180
     FM241800 18010KT P6SM SKC=



000
FTUS45 KPIH 232300
TAFBYI
TAF
KBYI 232326Z 2400/2424 30006KT P6SM FEW120 OVC180
     FM240400 VRB04KT P6SM SCT110 BKN130
     FM241800 18010KT P6SM SKC=



000
FTUS45 KPIH 231700
TAFIDA
TAF
KIDA 231720Z 2318/2418 22015KT P6SM FEW060 SCT080 OVC120
     FM240100 21006KT P6SM SCT070 BKN100 OVC180
     FM241600 22015KT P6SM SCT100=



000
FTUS45 KPIH 231700
TAFBYI
TAF
KBYI 231720Z 2318/2418 28010KT P6SM SCT100 BKN120
     FM232100 32008KT P6SM SCT070 BKN110 BKN160
     FM240400 VRB04KT P6SM SCT110 BKN130
     FM241400 VRB04KT P6SM SCT100=



000
FTUS45 KPIH 231700
TAFPIH
TAF
KPIH 231720Z 2318/2418 24010KT P6SM SCT090 BKN120
     FM240000 23006KT P6SM BKN100 BKN180
     FM240300 18010KT P6SM BKN100 OVC140
     FM241300 VRB04KT P6SM SCT110=



000
FTUS45 KPIH 231700
TAFSUN
TAF
KSUN 231720Z 2318/2418 16008KT P6SM VCSH BKN040 OVC090
     FM232100 25015KT P6SM VCSH OVC060
     FM240300 32006KT P6SM -SHRA SCT035 OVC050
     FM240900 VRB03KT P6SM VCSH SCT050 OVC090=



000
FTUS45 KPIH 231100
TAFPIH
TAF
KPIH 231120Z 2312/2412 VRB05KT P6SM BKN140
     FM231800 23014KT P6SM SCT090 BKN120
     FM240200 21008KT P6SM OVC120=



000
FTUS45 KPIH 231100
TAFIDA
TAF
KIDA 231120Z 2312/2412 VRB05KT P6SM BKN120
     FM231800 22014KT P6SM SCT080 BKN120
     FM240300 22011KT P6SM OVC070=



000
FTUS45 KPIH 231100
TAFBYI
TAF
KBYI 231120Z 2312/2412 VRB05KT P6SM BKN140
     FM231900 28010KT P6SM SCT070 BKN120
     FM232300 32008KT P6SM OVC100=



000
FTUS45 KPIH 231100
TAFSUN
TAF
KSUN 231120Z 2312/2412 32008KT P6SM VCSH FEW050 BKN090
     FM232000 18010KT P6SM VCSH SCT020 BKN040
     FM240300 32008KT P6SM VCSH SCT030 BKN060
      AMD LTD TO CLD VIS AND WIND TIL 231300=



000
FTUS45 KPIH 230500
TAFIDA
TAF
KIDA 230520Z 2306/2406 VRB05KT P6SM SCT080 BKN120
     FM232000 22014KT P6SM SCT080 BKN120
     FM240300 22011KT P6SM OVC070=



000
FTUS45 KPIH 230500
TAFBYI
TAF
KBYI 230520Z 2306/2406 VRB05KT P6SM FEW070 BKN150
     FM231000 VRB05KT P6SM SCT070 BKN150
     FM231900 28010KT P6SM SCT070 BKN120
     FM232300 32008KT P6SM OVC080=



000
FTUS45 KPIH 230500
TAFPIH
TAF
KPIH 230520Z 2306/2406 VRB05KT P6SM FEW070 BKN150
     FM231700 21010KT P6SM SCT090 BKN150
     FM232000 23014KT P6SM SCT090 BKN120
     FM240200 25008KT P6SM OVC100=



000
FTUS45 KPIH 230500
TAFSUN
TAF
KSUN 230520Z 2306/2406 VRB05KT P6SM FEW050 BKN090
     FM231600 24010KT P6SM VCSH SCT030 OVC060
     FM232000 24010KT P6SM -SHRA SCT020 BKN040
     FM240300 VRB05KT P6SM VCSH SCT030 BKN060
      AMD LTD TO CLD VIS AND WIND TIL 231300=



000
FTUS45 KPIH 222300
TAFSUN
TAF
KSUN 222320Z 2300/2324 VRB05KT P6SM FEW100 BKN150
     FM230400 31006KT P6SM BKN060 OVC100
     FM231600 24010KT P6SM VCSH SCT030 OVC060
      AMD LTD TO CLD VIS AND WIND 2305/2313=



000
FTUS45 KPIH 222300
TAFIDA
TAF
KIDA 222320Z 2300/2324 23008KT P6SM SCT120
     FM230800 VRB04KT P6SM SCT080 BKN120
     FM232000 22014KT P6SM SCT080 BKN120=



000
FTUS45 KPIH 222300
TAFBYI
TAF
KBYI 222320Z 2300/2324 VRB05KT P6SM FEW070 SCT150
     FM231000 VRB05KT P6SM SCT070 BKN150
     FM231900 27010KT P6SM SCT070 BKN120=



000
FTUS45 KPIH 222300
TAFPIH
TAF
KPIH 222320Z 2300/2324 VRB05KT P6SM FEW070 SCT150
     FM231700 21010KT P6SM SCT090 BKN150
     FM232000 23014KT P6SM SCT090 BKN150=



000
FTUS45 KPIH 221700
TAFIDA
TAF
KIDA 221720Z 2218/2318 24006KT P6SM SCT035 SCT160 BKN250
     FM230300 04006KT P6SM SCT070 BKN110 BKN160=



000
FTUS45 KPIH 221700
TAFSUN
TAF
KSUN 221720Z 2218/2318 14006KT P6SM FEW030 SCT120 SCT200
     FM230000 VRB05KT P6SM BKN100 BKN150
     FM230400 31006KT P6SM BKN060 OVC100
     FM230800 31006KT P6SM SCT060 BKN110 BKN200=



000
FTUS45 KPIH 221700
TAFBYI
TAF
KBYI 221720Z 2218/2318 08006KT P6SM FEW040 SCT130 SCT200
     FM230000 06006KT P6SM SCT090 BKN130 BKN200=



000
FTUS45 KPIH 221700
TAFPIH
TAF
KPIH 221720Z 2218/2318 VRB04KT P6SM FEW035 FEW140
     FM222200 36006KT P6SM FEW050 SCT140 BKN200
     FM230200 05006KT P6SM BKN120=



000
FTUS45 KPIH 221700
TAFBYI
TAF
KBYI 221720Z 2218/2318 08006KT P6SM FEW040 SCT130 SCT200
     FM230000 06006KT P6SM SCT090 BKN130 BKN200=



000
FTUS45 KPIH 221700
TAFIDA
TAF
KIDA 221720Z 2218/2318 24006KT P6SM SCT035 SCT160 BKN250
     FM230300 04006KT P6SM SCT070 BKN110 BKN160=



000
FTUS45 KPIH 221700
TAFSUN
TAF
KSUN 221720Z 2218/2318 14006KT P6SM FEW030 SCT120 SCT200
     FM230000 VRB05KT P6SM BKN100 BKN150
     FM230400 31006KT P6SM BKN060 OVC100
     FM230800 31006KT P6SM SCT060 BKN110 BKN200=



000
FTUS45 KPIH 221700
TAFPIH
TAF
KPIH 221720Z 2218/2318 VRB04KT P6SM FEW035 FEW140
     FM222200 36006KT P6SM FEW050 SCT140 BKN200
     FM230200 05006KT P6SM BKN120=



    US Dept of Commerce
    National Oceanic and Atmospheric Administration
    National Weather Service
    1325 East West Highway
    Silver Spring, MD 20910
    Page Author: NWS Internet Services Team
Disclaimer
Information Quality
Credits
Glossary
Privacy Policy
Freedom of Information Act (FOIA)
About Us
Career Opportunities